Du har inga inställningar för hoppväder.nu

Hoppväder.nu

Senast uppdaterat 10:06

UTC-tid

2019-01-17 kl. 09:06


Sol och måne

Solen går upp 8:38 och går ner 15:42 (beräknade cirkatider)
Nästa fullmåne blir om 4 dagar (2019-01-21)

METAR

ESOE (Örebro)
(16 minuter sedan)
ESOE 170850Z 27005KT 240V300 9999 BKN036 M06/M08 Q0987=



ESOK (Karlstad)
(16 minuter sedan)
ESOK 170850Z 30006KT CAVOK M10/M11 Q0989=



ESGR (Skövde)
(16 minuter sedan)
ESGR 170850Z AUTO 32004KT 280V360 9999 SCT016/// M05/M06 Q0989=



ESSD (Borlänge)
(16 minuter sedan)
ESSD 170850Z 32011KT 8000 -SN OVC017 M05/M05 Q0987=



ESOW (Västerås)
(16 minuter sedan)
ESOW 170850Z 31009KT 9999 SHSN FEW007 SCT025 BKN033 M03/M06 Q0986=



TAF

ESOE (Örebro)
(36 minuter sedan)
ESOE RRA 170830Z 1709/1718 31006KT 9999 BKN013 BECMG 1709/1711 BKN015 PROB40 1711/1714 4000 SN VV012=



ESOK (Karlstad)
(36 minuter sedan)
ESOK RRA 170830Z 1709/1718 31010KT CAVOK PROB40 1712/1715 4000 SN VV014=



ESGR (Skövde)
ESGR



ESSD (Borlänge)
(36 minuter sedan)
ESSD RRA 170830Z 1709/1716 31010KT 9999 SCT010 BKN015 TEMPO 1709/1713 3500 SN VV009=



ESOW (Västerås)
(36 minuter sedan)
ESOW RRA 170830Z 1709/1715 32010KT 9999 SCT015 BKN025 PROB40 1709/1710 BKN014 PROB40 1710/1714 3500 SN VV009=





Kodnycklar till TAF och METAR






LHP

(Örebro är område G2a i Södra delen)

ÖVERSIKT FÖR OMRÅDE B UTFÄRDAD 170857
GÄLLANDE DEN 17 JANUARI 2019 MELLAN 09 OCH 17 UTC


Väderöversikt

Torrare nordvästvindar börjar avancera över södra Sverige

Sikt under 5 kilometer eller molnbas under 1000 fot
09-13UTC: I hela området
13-17UTC: Hela området utom Nordvästra delen


Måttlig eller svår isbildning
09-17UTC: I hela området


Måttlig eller svår turbulens
Väntas inte förekomma under perioden



PROGNOS FÖR OMRÅDE B DEN SÖDRA DELEN UTFÄRDAD 170857
GÄLLANDE DEN 17 JANUARI 2019 MELLAN 09 OCH 17 UTC

Måttlig eller svår turbulens
09-17UTC: I hela området: Väntas inte förekomma under perioden

Måttlig eller svår isbildning
09-13UTC: Område G1c: måttlig isbildning 500ft - FL120, måttlig isbildning 1000ft - FL120

09-17UTC: Område G1a,G1b,G2b,G2a,G2c,G3a,G3c,G3b,G3d: måttlig isbildning 500ft - FL120

13-17UTC: Område G1c: måttlig isbildning 500ft - FL120


Sikt/Väder/Moln
09-11UTC: Område G1a,G2b,G2c: Sikt 1.5km - >8km i snöfall. Molnbas 500ft - >2000ft.
Område G3b: Sikt >8km, lokalt 3km - 5km. Molnbas >2000ft, lokalt 500ft - 1000ft.
Område G1c,G3d: Sikt 3km - >8km. Molnbas 500ft - >2000ft.

09-13UTC: Område G2a,G3a: Sikt >8km, lokalt 3km - 5km. Molnbas >2000ft, lokalt 500ft - 1000ft.
Område G1b,G3c: Sikt 3km - >8km. Molnbas 500ft - >2000ft.

11-13UTC: Område G1a,G2c: Sikt >8km, lokalt 3km - 5km. Molnbas >2000ft, lokalt 500ft - 1000ft.
Område G3b: Sikt 3km - >8km. Molnbas 500ft - >2000ft.
Område G2b: Sikt 1.5km - >8km i snöbyar. Molnbas 500ft - >2000ft.

11-17UTC: Område G1c,G3d: Sikt >8km. Molnbas >2000ft.

13-15UTC: Område G2c: Sikt 1.5km - >8km i snöfall. Molnbas 500ft - >2000ft.
Område G2a,G3a,G3b: Sikt 5km - >8km. Molnbas 1000ft - >2000ft.

13-17UTC: Område G1a,G2b: Sikt 1.5km - >8km i snöfall. Molnbas 500ft - >2000ft.
Område G1b: Sikt 5km - >8km. Molnbas 1000ft - >2000ft.
Område G3c: Sikt >8km. Molnbas >2000ft.

15-17UTC: Område G3a: Sikt 1.5km - >8km i snöfall. Molnbas 500ft - >2000ft.
Område G2c: Sikt >8km, lokalt 1.5km - 3km i snöfall. Molnbas >2000ft, lokalt 500ft - 1000ft.
Område G2a,G3b: Sikt >8km. Molnbas >2000ft.


Molnöversida
09-13UTC: Område G2a,G3a: Molnöversida > FL125.

09-15UTC: Område G3b: Molnöversida FL060.
Område G2b,G2c: Molnöversida > FL125.

09-17UTC: Område G1a,G1c,G1b,G3c,G3d: Molnöversida > FL125.

13-15UTC: Område G2a,G3a: Molnöversida FL060.

15-17UTC: Område G2b,G2a,G2c: Ingen prognos
Område G3a,G3b: Molnöversida > FL125.


CB/TCU Moln
09-11UTC: Område G1c: ISOL CB

09-17UTC: Område G1a,G1b,G2b,G2a,G2c,G3a,G3c,G3b,G3d: Väntas inte förekomma under perioden

11-17UTC: Område G1c: Väntas inte förekomma under perioden


Nollgradersisoterm
09-11UTC: Noll grader SFC - 2500ft.
11-17UTC: Noll grader SFC.

Vind vid marken
09-11UTC: Område G1a: NV-N/6-23 knop, byar upp till 30 knop.
Område G3b: NV/4-12 knop, byar upp till 18 knop.
Område G1c: NV/5-18 knop, byar upp till 26 knop.
Område G2b: NV-N/4-14 knop, byar upp till 21 knop.
Område G3a: NV/4-10 knop, byar upp till 21 knop.
Område G1b: NV/5-19 knop, byar upp till 25 knop.
Område G3d: NV/5-14 knop, byar upp till 22 knop.
Område G2a: NV/4-11 knop, byar upp till 19 knop.
Område G2c: NV-N/7-11 knop, byar upp till 21 knop.
Område G3c: W-NV/4-13 knop, byar upp till 19 knop.

11-13UTC: Område G3d: NV/5-12 knop, byar upp till 20 knop.
Område G3c: NV/4-12 knop, byar upp till 18 knop.
Område G3a: NV-N/4-10 knop, byar upp till 21 knop.
Område G2a: NV-N/3-8 knop, byar upp till 17 knop.
Område G2c: NV-N/6-11 knop, byar upp till 21 knop.
Område G3b: NV/4-10 knop, byar upp till 15 knop.
Område G1b: NV/4-19 knop, byar upp till 25 knop.
Område G1c: NV/5-18 knop, byar upp till 23 knop.

11-15UTC: Område G2b: N/4-15 knop, byar upp till 22 knop.
Område G1a: NV-N/6-25 knop, byar upp till 33 knop.

13-15UTC: Område G3b: NV-N/4-11 knop, byar upp till 17 knop.
Område G3c: NV/4-13 knop, byar upp till 19 knop.
Område G2a: N/3-12 knop, byar upp till 16 knop.
Område G3a: N/4-11 knop, byar upp till 22 knop.
Område G1c: NV/4-17 knop, byar upp till 22 knop.
Område G2c: NV-N/7-12 knop, byar upp till 22 knop.
Område G3d: NV/5-13 knop, byar upp till 19 knop.
Område G1b: NV-N/4-17 knop, byar upp till 24 knop.

15-17UTC: Område G3a: NV-N/2-9 knop, byar upp till 20 knop.
Område G2b: NV-N/3-14 knop, byar upp till 20 knop.
Område G3b: NV-N/2-10 knop, byar upp till 16 knop.
Område G1b: N/3-19 knop, byar upp till 25 knop.
Område G2a: NV-N/2-10 knop, byar upp till 15 knop.
Område G3d: NV-N/4-12 knop, byar upp till 20 knop.
Område G1a: NV-N/5-24 knop, byar upp till 31 knop.
Område G2c: NV-N/4-11 knop, byar upp till 20 knop.
Område G3c: NV-N/3-10 knop, byar upp till 17 knop.
Område G1c: NV-N/4-16 knop, byar upp till 21 knop.


Genomsnittlig vind och temperatur för området
2000ft:
09-11UTC: 350/20kt -6.
11-13UTC: 360/19kt -6.
13-17UTC: 360/18kt -6.

FL50:
09-11UTC: 320/20kt -6.
11-13UTC: 330/20kt -10.
13-15UTC: 350/19kt -11.
15-17UTC: 360/18kt -12.

FL100:
09-11UTC: 280/30kt -18.
11-13UTC: 280/31kt -20.
13-15UTC: 290/27kt -21.
15-17UTC: 310/24kt -22.

Lägsta QNH
982 hPa, stigande, lägst i öst.

OBS! endast utbredd måttlig eller svår isbildning och turbulens prognostiseras i LLF.
Avsaknad av isbildning och turbulens i prognosen utesluter inte förekomst av lätt isbildning och turbulens.
För indikation på lätt isbildning, var vänlig kontrollera om prognosen för molntopp ligger högre än nollgradersisotermen.
Förekomst av TCU eller CB medför alltid en risk för måttlig eller svår isbildning och turbulens även om det inte framgår explicit av prognosen.





Spotting

Hur fungerar spotthjälpen och Vindkartan?

Markvind är ca 0 m/s.
Vind på 600 m ca 10 m/s.
Vind på 1500 m ca 10 m/s.
Vind på 3000 m ca 15 m/s.
FXB flyger ca 21 m/s över marken på finalen.
Du driver ca 694 m bakåt i frifall. (926 m)
Lämplig spot är 20 sekunder eller 412 m efter gropen.
(31 s eller 638 m)
För små grupper eller ensamhoppare bör man vänta 7-10 sekunder mellan grupperna.
För större grupper bör man vänta 15-18 sekunder mellan grupperna.


Vindkartan

Senast uppdaterad 10:06




All data kommer från LFV.se